首页
METAR-TAF:

METAR-TAF

机场 :

Timmins, 安大略省, 加拿大

纬度: 48-34N, 经度: 081-22W, 海拔: 295米

当前天气观测

该预报发布于1小时和11分钟前的23:00 UTC
风速13节,风向南转南东
温度 22°C
湿度 41%
气压 1004 hPa
能見度: 24.1公里
少量云层高于2000英尺
阴天层高于8000英尺

METAR: CYTS 242300Z 15013KT 15SM FEW020 OVC080 22/08 A2965 RMK SC1AC8 SC TR SLP043 DENSITY ALT 2400FT

时间: 20:11 (00:11 UTC)

预报

该预报发布于4小时和33分钟前的19:38 UTC
预报有效从24日的 20点(UTC)到 25日的 08点(UTC)
风速12节,风向东南,有时为22节阵风
能見度: 10公里
少量云层高于4000英尺
多云层高于12000英尺
从 25日的 0000点(UTC)
风速10节,风向南转南东,有时为20节阵风
能見度: 10公里
阴天层高于2500英尺
小雨
短暂存在
从 25日的 00点(UTC)到 25日的 03点(UTC)
能見度: 8.0公里
多云层高于800英尺
阴天层高于1500英尺
小阵雨, 轻雾
从 25日的 0300点(UTC)
风速8节,风向东南
能見度: 10公里
阴天层高于1200英尺
小雨
短暂存在
从 25日的 03点(UTC)到 25日的 08点(UTC)
能見度: 3.2公里
阴天层高于400英尺
阵雨, 轻雾

TAF: CYTS 241938Z 2420/2508 14012G22KT P6SM FEW040 BKN120 FM250000 15010G20KT P6SM -RA OVC025 TEMPO 2500/2503 5SM -SHRA BR BKN008 OVC015 FM250300 14008KT P6SM -RA OVC012 TEMPO 2503/2508 2SM SHRA BR OVC004 RMK NXT FCST BY 250200Z

超过4000个机场的气象观测和天气预报(METAR&TAF报告)。

可查询的气象台以黄色和红色小点在地图上表示。

将鼠标移到小点上方,可查看气象台名称。

然后点击查看天气观测和预报。

如需切换地图:点击带黑十字的绿色按钮放大地图;点击带横线的绿色按钮缩小地图;或者点击绿色箭头查看邻近地区的地图。


METAR-TAF: